createdAt,value
2023-03-13T00:02:31.483Z,5.40
2023-03-13T00:05:00.938Z,5.41
2023-03-13T00:07:30.357Z,5.39
2023-03-13T00:10:00.185Z,5.38
2023-03-13T00:12:29.555Z,5.36
2023-03-13T00:14:59.311Z,5.36
2023-03-13T00:17:33.522Z,5.33
2023-03-13T00:20:04.598Z,5.31
2023-03-13T00:22:34.019Z,5.32
2023-03-13T00:25:03.481Z,5.31
2023-03-13T00:27:35.811Z,5.26
2023-03-13T00:30:05.232Z,5.30
2023-03-13T00:32:37.299Z,5.28
2023-03-13T00:35:07.620Z,5.24
2023-03-13T00:37:36.984Z,5.24
2023-03-13T00:40:08.220Z,5.24
2023-03-13T00:42:37.736Z,5.19
2023-03-13T00:45:08.464Z,5.21
2023-03-13T00:47:40.488Z,5.26
2023-03-13T00:50:10.773Z,5.27
2023-03-13T00:52:40.206Z,5.28
2023-03-13T00:55:10.824Z,5.32
2023-03-13T00:57:40.409Z,5.35
2023-03-13T01:00:11.565Z,5.36
2023-03-13T01:02:46.705Z,5.40
2023-03-13T01:05:16.273Z,5.49
2023-03-13T01:07:45.656Z,5.52
2023-03-13T01:10:15.246Z,5.54
2023-03-13T01:12:44.990Z,5.56
2023-03-13T01:15:14.766Z,5.58
2023-03-13T01:17:46.749Z,5.63
2023-03-13T01:20:16.486Z,5.66
2023-03-13T01:22:45.928Z,5.68
2023-03-13T01:25:16.386Z,5.70
2023-03-13T01:27:45.811Z,5.69
2023-03-13T01:30:15.824Z,5.73
2023-03-13T01:32:47.798Z,5.73
2023-03-13T01:35:18.502Z,5.74
2023-03-13T01:37:47.896Z,5.78
2023-03-13T01:40:17.531Z,5.81
2023-03-13T01:42:57.247Z,5.82
2023-03-13T01:45:57.926Z,5.86
2023-03-13T01:48:36.902Z,5.92
2023-03-13T01:51:13.226Z,5.92
2023-03-13T01:53:45.516Z,5.93
2023-03-13T01:56:18.596Z,5.97
2023-03-13T01:58:48.474Z,5.98
2023-03-13T02:01:18.627Z,5.94
2023-03-13T02:03:51.734Z,5.97
2023-03-13T02:06:21.706Z,5.97
2023-03-13T02:08:54.987Z,5.97
2023-03-13T02:11:30.579Z,5.97
2023-03-13T02:14:01.151Z,5.98
2023-03-13T02:16:30.884Z,5.93
2023-03-13T02:19:03.551Z,5.95
2023-03-13T02:21:42.034Z,6.00
2023-03-13T02:24:17.542Z,6.00
2023-03-13T02:26:49.632Z,6.02
2023-03-13T02:29:20.836Z,6.03
2023-03-13T02:31:50.916Z,6.04
2023-03-13T02:34:24.052Z,6.06
2023-03-13T02:36:53.440Z,6.07
2023-03-13T02:39:26.480Z,6.07
2023-03-13T02:41:58.989Z,6.08
2023-03-13T02:44:28.489Z,6.08
2023-03-13T02:46:57.866Z,6.10
2023-03-13T02:49:29.378Z,6.11
2023-03-13T02:52:00.802Z,6.13
2023-03-13T02:54:33.568Z,6.08
2023-03-13T02:57:07.029Z,6.12
2023-03-13T02:59:37.612Z,6.06
2023-03-13T03:02:07.514Z,6.05
2023-03-13T03:04:36.958Z,6.06
2023-03-13T03:07:06.517Z,6.06
2023-03-13T03:09:35.961Z,6.08
2023-03-13T03:12:09.064Z,6.09
2023-03-13T03:14:38.820Z,6.07
2023-03-13T03:17:08.246Z,6.06
2023-03-13T03:19:37.695Z,6.04
2023-03-13T03:22:07.325Z,6.08
2023-03-13T03:24:36.759Z,6.06
2023-03-13T03:27:09.069Z,6.08
2023-03-13T03:29:38.500Z,6.10
2023-03-13T03:32:08.463Z,6.12
2023-03-13T03:34:37.882Z,6.18
2023-03-13T03:37:07.313Z,6.20
2023-03-13T03:39:36.742Z,6.20
2023-03-13T03:42:09.647Z,6.20
2023-03-13T03:44:41.608Z,6.26
2023-03-13T03:47:11.047Z,6.26
2023-03-13T03:49:40.548Z,6.22
2023-03-13T03:52:10.219Z,6.19
2023-03-13T03:54:39.698Z,6.22
2023-03-13T03:57:11.971Z,6.25
2023-03-13T03:59:41.416Z,6.27
2023-03-13T04:02:10.903Z,6.26
2023-03-13T04:04:40.351Z,6.25
2023-03-13T04:07:09.744Z,6.21
2023-03-13T04:09:39.470Z,6.24
2023-03-13T04:12:12.164Z,6.22
2023-03-13T04:14:41.553Z,6.23
2023-03-13T04:17:10.970Z,6.21
2023-03-13T04:19:40.769Z,6.20
2023-03-13T04:22:10.304Z,6.21
2023-03-13T04:24:40.289Z,6.21
2023-03-13T04:27:12.314Z,6.19
2023-03-13T04:29:41.847Z,6.22
2023-03-13T04:32:11.727Z,6.18
2023-03-13T04:34:41.188Z,6.24
2023-03-13T04:37:10.803Z,6.26
2023-03-13T04:39:40.343Z,6.23
2023-03-13T04:42:15.383Z,6.23
2023-03-13T04:44:44.847Z,6.18
2023-03-13T04:47:14.258Z,6.17
2023-03-13T04:49:43.737Z,6.17
2023-03-13T04:52:13.716Z,6.19
2023-03-13T04:54:43.444Z,6.19
2023-03-13T04:57:15.460Z,6.20
2023-03-13T04:59:44.998Z,6.19
2023-03-13T05:02:15.103Z,6.18
2023-03-13T05:04:44.648Z,6.15
2023-03-13T05:07:14.032Z,6.13
2023-03-13T05:09:43.533Z,6.09
2023-03-13T05:12:15.571Z,6.06
2023-03-13T05:14:44.985Z,6.04
2023-03-13T05:17:14.468Z,6.02
2023-03-13T05:19:43.906Z,6.00
2023-03-13T05:22:13.390Z,5.98
2023-03-13T05:24:42.961Z,5.97
2023-03-13T05:27:17.665Z,5.98
2023-03-13T05:29:47.141Z,5.97
2023-03-13T05:32:16.587Z,6.02
2023-03-13T05:34:46.184Z,6.06
2023-03-13T05:37:15.597Z,6.05
2023-03-13T05:39:45.041Z,6.04
2023-03-13T05:42:17.025Z,6.02
2023-03-13T05:44:46.427Z,6.05
2023-03-13T05:47:17.331Z,6.00
2023-03-13T05:49:47.073Z,6.02
2023-03-13T05:52:16.432Z,6.03
2023-03-13T05:54:46.137Z,6.10
2023-03-13T05:57:18.292Z,6.10
2023-03-13T05:59:47.721Z,6.12
2023-03-13T06:02:17.116Z,6.14
2023-03-13T06:04:46.673Z,6.11
2023-03-13T06:07:16.217Z,6.21
2023-03-13T06:09:45.757Z,6.18
2023-03-13T06:12:18.199Z,6.20
2023-03-13T06:14:47.613Z,6.22
2023-03-13T06:17:17.016Z,6.27
2023-03-13T06:19:46.493Z,6.31
2023-03-13T06:22:15.966Z,6.39
2023-03-13T06:24:46.931Z,6.46
2023-03-13T06:27:19.081Z,6.44
2023-03-13T06:29:48.506Z,6.49
2023-03-13T06:32:18.088Z,6.55
2023-03-13T06:34:47.711Z,6.60
2023-03-13T06:37:17.255Z,6.64
2023-03-13T06:39:46.702Z,6.72
2023-03-13T06:42:18.739Z,6.83
2023-03-13T06:44:48.104Z,6.92
2023-03-13T06:47:17.505Z,6.97
2023-03-13T06:49:46.920Z,6.99
2023-03-13T06:52:16.295Z,7.08
2023-03-13T06:54:45.726Z,7.13
2023-03-13T06:57:15.343Z,7.20
2023-03-13T06:59:47.477Z,7.20
2023-03-13T07:02:17.212Z,7.27
2023-03-13T07:04:46.707Z,7.31
2023-03-13T07:07:29.504Z,7.33
2023-03-13T07:10:00.850Z,7.38
2023-03-13T07:12:30.325Z,7.42
2023-03-13T07:15:05.226Z,7.43
2023-03-13T07:17:34.659Z,7.49
2023-03-13T07:20:05.194Z,7.47
2023-03-13T07:22:34.722Z,7.48
2023-03-13T07:25:04.802Z,7.46
2023-03-13T07:27:34.343Z,7.47
2023-03-13T07:30:06.931Z,7.49
2023-03-13T07:32:36.485Z,7.55
2023-03-13T07:35:06.195Z,7.52
2023-03-13T07:37:35.646Z,7.54
2023-03-13T07:40:09.337Z,7.56
2023-03-13T07:42:38.709Z,7.59
2023-03-13T07:45:12.125Z,7.61
2023-03-13T07:47:41.593Z,7.67
2023-03-13T07:50:12.763Z,7.70
2023-03-13T07:52:42.151Z,7.76
2023-03-13T07:55:12.475Z,7.82
2023-03-13T07:57:41.940Z,7.86
2023-03-13T08:00:17.487Z,7.93
2023-03-13T08:02:46.907Z,7.97
2023-03-13T08:05:16.435Z,8.03
2023-03-13T08:07:47.164Z,8.10
2023-03-13T08:10:16.892Z,8.10
2023-03-13T08:12:46.262Z,8.16
2023-03-13T08:15:21.712Z,8.20
2023-03-13T08:17:51.349Z,8.29
2023-03-13T08:20:21.220Z,8.35
2023-03-13T08:22:50.978Z,8.42
2023-03-13T08:25:20.459Z,8.47
2023-03-13T08:27:49.961Z,8.51
2023-03-13T08:30:22.298Z,8.58
2023-03-13T08:32:51.799Z,8.63
2023-03-13T08:35:21.301Z,8.68
2023-03-13T08:37:50.996Z,8.71
2023-03-13T08:40:20.700Z,8.80
2023-03-13T08:42:50.159Z,8.87
2023-03-13T08:45:22.143Z,8.94
2023-03-13T08:47:55.313Z,8.96
2023-03-13T08:50:24.700Z,9.00
2023-03-13T08:52:54.202Z,9.04
2023-03-13T08:55:25.584Z,9.07
2023-03-13T08:57:55.945Z,9.13
2023-03-13T09:00:28.327Z,9.12
2023-03-13T09:03:00.214Z,9.22
2023-03-13T09:05:29.634Z,9.26
2023-03-13T09:07:59.055Z,9.30
2023-03-13T09:10:29.000Z,9.35
2023-03-13T09:12:58.523Z,9.38
2023-03-13T09:15:30.704Z,9.41
2023-03-13T09:18:00.296Z,9.47
2023-03-13T09:20:29.722Z,9.53
2023-03-13T09:22:59.105Z,9.58
2023-03-13T09:25:28.548Z,9.59
2023-03-13T09:27:57.978Z,9.65
2023-03-13T09:30:29.965Z,9.75
2023-03-13T09:32:59.667Z,9.80
2023-03-13T09:35:29.373Z,9.79
2023-03-13T09:37:58.861Z,9.81
2023-03-13T09:40:29.374Z,9.82
2023-03-13T09:43:00.682Z,9.84
2023-03-13T09:45:37.046Z,9.91
2023-03-13T09:48:10.273Z,9.90
2023-03-13T09:50:44.270Z,9.95
2023-03-13T09:53:17.690Z,9.96
2023-03-13T09:55:48.279Z,10.00
2023-03-13T09:58:20.678Z,10.06
2023-03-13T10:00:56.616Z,10.07
2023-03-13T10:03:29.444Z,10.06
2023-03-13T10:06:00.985Z,10.09
2023-03-13T10:08:33.125Z,10.10
2023-03-13T10:11:07.255Z,10.14
2023-03-13T10:13:40.567Z,10.19
2023-03-13T10:16:16.497Z,10.23
2023-03-13T10:18:48.692Z,10.25
2023-03-13T10:21:20.760Z,10.28
2023-03-13T10:23:53.316Z,10.34
2023-03-13T10:26:26.148Z,10.38
2023-03-13T10:28:56.124Z,10.36
2023-03-13T10:31:31.653Z,10.33
2023-03-13T10:34:08.934Z,10.33
2023-03-13T10:36:43.542Z,10.42
2023-03-13T10:39:18.424Z,10.55
2023-03-13T10:41:48.184Z,10.70
2023-03-13T10:44:19.886Z,10.76
2023-03-13T10:46:54.000Z,10.94
2023-03-13T10:49:26.412Z,11.17
2023-03-13T10:51:57.328Z,11.26
2023-03-13T10:54:28.188Z,11.32
2023-03-13T10:57:12.683Z,11.33
2023-03-13T10:59:44.812Z,11.35
2023-03-13T11:02:27.241Z,11.35
2023-03-13T11:04:57.466Z,11.34
2023-03-13T11:07:32.834Z,11.30
2023-03-13T11:10:04.344Z,11.29
2023-03-13T11:12:37.237Z,11.32
2023-03-13T11:15:14.395Z,11.32
2023-03-13T11:17:47.194Z,11.44
2023-03-13T11:20:27.420Z,11.63
2023-03-13T11:23:03.908Z,11.80
2023-03-13T11:25:38.747Z,12.00
2023-03-13T11:28:20.267Z,12.09
2023-03-13T11:31:00.417Z,12.13
2023-03-13T11:33:40.400Z,12.29
2023-03-13T11:36:17.267Z,12.38
2023-03-13T11:38:49.231Z,12.44
2023-03-13T11:41:30.599Z,12.52
2023-03-13T11:44:22.851Z,12.56
2023-03-13T11:47:04.491Z,12.59
2023-03-13T11:49:42.576Z,12.80
2023-03-13T11:52:22.092Z,13.17
2023-03-13T11:55:04.102Z,13.25
2023-03-13T11:57:37.897Z,13.24
2023-03-13T12:00:21.653Z,13.30
2023-03-13T12:02:53.267Z,13.32
2023-03-13T12:05:26.018Z,13.30
2023-03-13T12:07:58.669Z,13.34
2023-03-13T12:10:30.819Z,13.50
2023-03-13T12:13:06.735Z,13.74
2023-03-13T12:15:40.314Z,13.71
2023-03-13T12:18:15.700Z,13.72
2023-03-13T12:20:53.490Z,13.63
2023-03-13T12:23:26.277Z,13.48
2023-03-13T12:25:57.552Z,13.53
2023-03-13T12:28:34.970Z,13.67
2023-03-13T12:31:12.476Z,13.63
2023-03-13T12:33:46.229Z,13.56
2023-03-13T12:36:23.423Z,13.61
2023-03-13T12:38:58.236Z,13.61
2023-03-13T12:41:31.033Z,13.67
2023-03-13T12:44:08.888Z,13.76
2023-03-13T12:46:41.983Z,13.70
2023-03-13T12:49:50.186Z,13.82
2023-03-13T12:52:35.536Z,13.74
2023-03-13T12:55:35.263Z,13.53
2023-03-13T12:58:14.982Z,13.47
2023-03-13T13:00:46.116Z,13.36
2023-03-13T13:03:25.104Z,13.34
2023-03-13T13:06:02.446Z,13.42
2023-03-13T13:08:37.862Z,13.77
2023-03-13T13:11:45.845Z,13.66
2023-03-13T13:14:57.978Z,13.54
2023-03-13T13:17:58.161Z,13.54
2023-03-13T13:20:37.754Z,13.57
2023-03-13T13:23:27.849Z,13.66
2023-03-13T13:26:51.317Z,13.70
2023-03-13T13:30:02.336Z,14.13
2023-03-13T13:32:39.103Z,14.21
2023-03-13T13:35:35.907Z,14.68
2023-03-13T13:38:41.128Z,14.61
2023-03-13T13:41:39.684Z,14.53
2023-03-13T13:44:25.007Z,14.38
2023-03-13T13:46:55.949Z,14.27
2023-03-13T13:49:26.109Z,14.20
2023-03-13T13:52:34.420Z,14.20
2023-03-13T13:55:04.196Z,14.46
2023-03-13T13:57:39.267Z,14.67
2023-03-13T14:00:22.794Z,14.74
2023-03-13T14:02:53.865Z,14.55
2023-03-13T14:05:26.856Z,14.49
2023-03-13T14:08:00.795Z,14.53
2023-03-13T14:10:40.087Z,14.51
2023-03-13T14:13:20.691Z,14.62
2023-03-13T14:15:52.954Z,14.52
2023-03-13T14:18:26.351Z,14.51
2023-03-13T14:21:00.998Z,14.57
2023-03-13T14:23:42.210Z,14.87
2023-03-13T14:26:13.920Z,14.68
2023-03-13T14:28:49.686Z,14.72
2023-03-13T14:31:28.605Z,14.73
2023-03-13T14:33:59.042Z,15.11
2023-03-13T14:36:29.185Z,15.09
2023-03-13T14:38:59.837Z,15.15
2023-03-13T14:41:34.056Z,14.96
2023-03-13T14:44:14.721Z,15.09
2023-03-13T14:46:45.428Z,14.90
2023-03-13T14:49:20.749Z,15.13
2023-03-13T14:51:53.061Z,15.02
2023-03-13T14:54:31.609Z,14.91
2023-03-13T14:57:09.449Z,14.82
2023-03-13T14:59:43.139Z,14.87
2023-03-13T15:02:24.243Z,14.96
2023-03-13T15:04:56.083Z,14.92
2023-03-13T15:07:25.807Z,14.88
2023-03-13T15:09:55.274Z,14.83
2023-03-13T15:12:25.786Z,14.82
2023-03-13T15:14:57.795Z,15.02
2023-03-13T15:17:28.864Z,14.87
2023-03-13T15:19:59.510Z,14.76
2023-03-13T15:22:31.428Z,14.76
2023-03-13T15:25:08.345Z,14.76
2023-03-13T15:27:38.234Z,15.01
2023-03-13T15:30:11.567Z,15.09
2023-03-13T15:32:42.687Z,15.01
2023-03-13T15:35:25.315Z,14.89
2023-03-13T15:37:54.681Z,14.83
2023-03-13T15:40:24.812Z,14.84
2023-03-13T15:42:54.338Z,14.82
2023-03-13T15:45:26.354Z,14.76
2023-03-13T15:47:55.773Z,14.76
2023-03-13T15:50:30.755Z,14.71
2023-03-13T15:53:00.817Z,14.75
2023-03-13T15:55:30.736Z,14.67
2023-03-13T15:58:00.173Z,14.61
2023-03-13T16:00:32.585Z,14.58
2023-03-13T16:03:02.321Z,14.66
2023-03-13T16:05:34.086Z,14.70
2023-03-13T16:08:03.729Z,14.67
2023-03-13T16:10:34.880Z,14.68
2023-03-13T16:13:04.295Z,14.63
2023-03-13T16:15:36.278Z,14.65
2023-03-13T16:18:06.174Z,14.63
2023-03-13T16:20:37.303Z,14.68
2023-03-13T16:23:06.752Z,14.64
2023-03-13T16:25:36.335Z,14.65
2023-03-13T16:28:07.473Z,14.58
2023-03-13T16:30:41.451Z,14.62
2023-03-13T16:33:10.881Z,14.62
2023-03-13T16:35:40.645Z,14.54
2023-03-13T16:38:12.592Z,14.59
2023-03-13T16:40:42.007Z,14.54
2023-03-13T16:43:14.671Z,14.55
2023-03-13T16:45:47.979Z,14.51
2023-03-13T16:48:20.269Z,14.51
2023-03-13T16:50:49.665Z,14.46
2023-03-13T16:53:19.287Z,14.41
2023-03-13T16:55:48.714Z,14.38
2023-03-13T16:58:21.104Z,14.28
2023-03-13T17:03:42.517Z,14.29
2023-03-13T17:06:17.448Z,14.28
2023-03-13T17:08:47.118Z,14.24
2023-03-13T17:11:19.318Z,14.19
2023-03-13T17:13:50.221Z,14.16
2023-03-13T17:16:24.500Z,14.14
2023-03-13T17:18:55.987Z,14.12
2023-03-13T17:21:27.246Z,14.08
2023-03-13T17:23:56.727Z,14.02
2023-03-13T17:26:28.163Z,14.01
2023-03-13T17:28:58.789Z,13.99
2023-03-13T17:31:37.439Z,13.88
2023-03-13T17:34:07.197Z,13.90
2023-03-13T17:36:36.937Z,13.82
2023-03-13T17:39:08.883Z,13.82
2023-03-13T17:41:38.799Z,13.77
2023-03-13T17:44:08.563Z,13.73
2023-03-13T17:46:43.499Z,13.69
2023-03-13T17:49:13.735Z,13.66
2023-03-13T17:51:45.346Z,13.63
2023-03-13T17:54:16.035Z,13.56
2023-03-13T17:56:46.052Z,13.52
2023-03-13T17:59:17.429Z,13.49
2023-03-13T18:01:49.473Z,13.48
2023-03-13T18:04:18.904Z,13.44
2023-03-13T18:06:50.204Z,13.41
2023-03-13T18:09:20.887Z,13.35
2023-03-13T18:11:51.467Z,13.35
2023-03-13T18:14:21.560Z,13.32
2023-03-13T18:16:57.226Z,13.29
2023-03-13T18:19:28.042Z,13.27
2023-03-13T18:21:58.394Z,13.22
2023-03-13T18:24:27.787Z,13.08
2023-03-13T18:26:57.218Z,12.94
2023-03-13T18:29:29.351Z,12.77
2023-03-13T18:32:01.980Z,12.69
2023-03-13T18:34:31.884Z,12.55
2023-03-13T18:37:03.902Z,12.52
2023-03-13T18:39:34.502Z,12.47
2023-03-13T18:42:04.465Z,12.41
2023-03-13T18:44:33.829Z,12.46
2023-03-13T18:47:14.227Z,12.44
2023-03-13T18:49:43.910Z,12.43
2023-03-13T18:52:13.829Z,12.38
2023-03-13T18:54:44.398Z,12.32
2023-03-13T18:57:15.908Z,12.26
2023-03-13T18:59:45.714Z,12.16
2023-03-13T19:02:19.061Z,12.16
2023-03-13T19:04:48.625Z,12.17
2023-03-13T19:07:19.880Z,12.14
2023-03-13T19:09:49.288Z,12.07
2023-03-13T19:12:18.745Z,12.04
2023-03-13T19:14:48.235Z,12.10
2023-03-13T19:17:24.514Z,12.02
2023-03-13T19:19:57.309Z,11.95
2023-03-13T19:22:27.045Z,11.87
2023-03-13T19:24:56.434Z,11.81
2023-03-13T19:27:25.833Z,11.72
2023-03-13T19:29:55.240Z,11.71
2023-03-13T19:32:27.299Z,11.63
2023-03-13T19:34:56.777Z,11.55
2023-03-13T19:37:26.962Z,11.52
2023-03-13T19:39:56.362Z,11.45
2023-03-13T19:42:26.672Z,11.34
2023-03-13T19:44:56.091Z,11.31
2023-03-13T19:47:28.056Z,11.33
2023-03-13T19:49:59.024Z,11.31
2023-03-13T19:52:28.541Z,11.29
2023-03-13T19:55:05.150Z,11.31
2023-03-13T19:57:34.860Z,11.24
2023-03-13T20:00:05.860Z,11.25
2023-03-13T20:02:37.874Z,11.14
2023-03-13T20:05:10.106Z,11.09
2023-03-13T20:07:40.265Z,11.10
2023-03-13T20:10:13.745Z,11.05
2023-03-13T20:12:43.195Z,10.99
2023-03-13T20:15:13.704Z,10.98
2023-03-13T20:17:45.674Z,10.96
2023-03-13T20:20:16.062Z,10.93
2023-03-13T20:22:45.514Z,10.93
2023-03-13T20:25:16.002Z,10.87
2023-03-13T20:27:45.424Z,10.85
2023-03-13T20:30:15.333Z,10.84
2023-03-13T20:32:58.873Z,10.83
2023-03-13T20:35:30.504Z,10.84
2023-03-13T20:38:01.806Z,10.75
2023-03-13T20:40:31.228Z,10.74
2023-03-13T20:43:01.024Z,10.71
2023-03-13T20:45:31.510Z,10.65
2023-03-13T20:48:03.539Z,10.58
2023-03-13T20:50:33.212Z,10.58
2023-03-13T20:53:02.637Z,10.61
2023-03-13T20:55:32.937Z,10.59
2023-03-13T20:58:02.675Z,10.64
2023-03-13T21:00:32.088Z,10.59
2023-03-13T21:03:04.138Z,10.58
2023-03-13T21:05:33.733Z,10.61
2023-03-13T21:08:03.134Z,10.54
2023-03-13T21:10:32.604Z,10.45
2023-03-13T21:13:01.973Z,10.45
2023-03-13T21:15:31.328Z,10.42
2023-03-13T21:18:00.698Z,10.38
2023-03-13T21:20:33.143Z,10.38
2023-03-13T21:23:02.507Z,10.35
2023-03-13T21:25:31.921Z,10.33
2023-03-13T21:28:01.347Z,10.28
2023-03-13T21:30:31.208Z,10.26
2023-03-13T21:33:00.735Z,10.23
2023-03-13T21:35:32.710Z,10.18
2023-03-13T21:38:02.127Z,10.20
2023-03-13T21:40:31.797Z,10.16
2023-03-13T21:43:01.171Z,10.13
2023-03-13T21:45:30.787Z,10.07
2023-03-13T21:48:00.191Z,10.09
2023-03-13T21:50:33.585Z,10.07
2023-03-13T21:53:03.002Z,10.12
2023-03-13T21:55:35.280Z,10.10
2023-03-13T21:58:05.198Z,10.06
2023-03-13T22:00:34.611Z,10.08
2023-03-13T22:03:04.362Z,10.08
2023-03-13T22:05:38.184Z,10.05
2023-03-13T22:08:07.979Z,10.04
2023-03-13T22:10:37.857Z,9.99
2023-03-13T22:13:07.642Z,9.97
2023-03-13T22:15:37.223Z,9.95
2023-03-13T22:18:07.425Z,9.89
2023-03-13T22:20:40.138Z,9.86
2023-03-13T22:23:10.402Z,9.86
2023-03-13T22:25:41.030Z,9.83
2023-03-13T22:28:10.819Z,9.77
2023-03-13T22:30:41.128Z,9.76
2023-03-13T22:33:10.682Z,9.74
2023-03-13T22:35:45.165Z,9.74
2023-03-13T22:38:14.740Z,9.76
2023-03-13T22:40:44.152Z,9.72
2023-03-13T22:43:13.525Z,9.69
2023-03-13T22:45:42.931Z,9.69
2023-03-13T22:48:12.303Z,9.66
2023-03-13T22:50:44.579Z,9.66
2023-03-13T22:53:14.240Z,9.68
2023-03-13T22:55:43.643Z,9.75
2023-03-13T22:58:13.115Z,9.71
2023-03-13T23:00:42.531Z,9.70
2023-03-13T23:03:11.990Z,9.78
2023-03-13T23:05:46.038Z,9.79
2023-03-13T23:08:15.753Z,9.75
2023-03-13T23:10:45.558Z,9.77
2023-03-13T23:13:15.896Z,9.76
2023-03-13T23:15:55.698Z,9.78
2023-03-13T23:18:25.709Z,9.74
2023-03-13T23:20:57.761Z,9.67
2023-03-13T23:23:27.435Z,9.68
2023-03-13T23:25:56.810Z,9.67
2023-03-13T23:28:26.211Z,9.78
2023-03-13T23:30:55.728Z,9.78
2023-03-13T23:33:25.307Z,9.77
2023-03-13T23:35:57.318Z,9.71
2023-03-13T23:38:28.022Z,9.65
2023-03-13T23:40:57.379Z,9.70
2023-03-13T23:43:26.789Z,9.68
2023-03-13T23:45:56.173Z,9.63
2023-03-13T23:48:25.582Z,9.53
2023-03-13T23:50:57.892Z,9.56
2023-03-13T23:53:27.316Z,9.56
2023-03-13T23:56:00.659Z,9.67
2023-03-13T23:58:30.033Z,9.64
